sensor_id;sensor_type;location;lat;lon;timestamp;P1;durP1;ratioP1;P2;durP2;ratioP2
41885;SDS011;27567;43.084;25.616;2023-04-03T00:02:44;3.00;;;1.67;;
41885;SDS011;27567;43.084;25.616;2023-04-03T00:05:28;4.13;;;1.95;;
41885;SDS011;27567;43.084;25.616;2023-04-03T00:08:12;5.40;;;2.05;;
41885;SDS011;27567;43.084;25.616;2023-04-03T00:10:56;3.28;;;1.98;;
41885;SDS011;27567;43.084;25.616;2023-04-03T00:13:40;4.43;;;1.73;;
41885;SDS011;27567;43.084;25.616;2023-04-03T00:16:25;4.80;;;2.00;;
41885;SDS011;27567;43.084;25.616;2023-04-03T00:19:09;2.45;;;1.63;;
41885;SDS011;27567;43.084;25.616;2023-04-03T00:21:55;4.22;;;1.75;;
41885;SDS011;27567;43.084;25.616;2023-04-03T00:24:39;2.83;;;1.70;;
41885;SDS011;27567;43.084;25.616;2023-04-03T00:27:23;3.60;;;1.80;;
41885;SDS011;27567;43.084;25.616;2023-04-03T00:30:08;2.30;;;1.50;;
41885;SDS011;27567;43.084;25.616;2023-04-03T00:32:54;3.17;;;1.52;;
41885;SDS011;27567;43.084;25.616;2023-04-03T00:35:39;4.03;;;1.35;;
41885;SDS011;27567;43.084;25.616;2023-04-03T00:38:23;2.47;;;1.58;;
41885;SDS011;27567;43.084;25.616;2023-04-03T00:41:07;3.42;;;1.48;;
41885;SDS011;27567;43.084;25.616;2023-04-03T00:43:51;4.22;;;1.33;;
41885;SDS011;27567;43.084;25.616;2023-04-03T00:46:36;3.92;;;1.48;;
41885;SDS011;27567;43.084;25.616;2023-04-03T00:49:20;5.93;;;1.50;;
41885;SDS011;27567;43.084;25.616;2023-04-03T00:52:04;3.75;;;1.70;;
41885;SDS011;27567;43.084;25.616;2023-04-03T00:54:53;3.58;;;2.10;;
41885;SDS011;27567;43.084;25.616;2023-04-03T00:57:40;3.10;;;1.73;;
41885;SDS011;27567;43.084;25.616;2023-04-03T01:00:26;3.90;;;1.92;;
41885;SDS011;27567;43.084;25.616;2023-04-03T01:03:10;2.03;;;1.30;;
41885;SDS011;27567;43.084;25.616;2023-04-03T01:05:54;2.97;;;1.10;;
41885;SDS011;27567;43.084;25.616;2023-04-03T01:08:38;2.63;;;1.00;;
41885;SDS011;27567;43.084;25.616;2023-04-03T01:11:23;1.88;;;1.33;;
41885;SDS011;27567;43.084;25.616;2023-04-03T01:14:07;5.20;;;1.42;;
41885;SDS011;27567;43.084;25.616;2023-04-03T01:16:54;3.80;;;2.08;;
41885;SDS011;27567;43.084;25.616;2023-04-03T01:19:38;3.60;;;1.95;;
41885;SDS011;27567;43.084;25.616;2023-04-03T01:22:32;2.53;;;1.95;;
41885;SDS011;27567;43.084;25.616;2023-04-03T01:25:22;3.67;;;1.50;;
41885;SDS011;27567;43.084;25.616;2023-04-03T01:28:08;2.60;;;1.73;;
41885;SDS011;27567;43.084;25.616;2023-04-03T01:31:13;5.47;;;2.30;;
41885;SDS011;27567;43.084;25.616;2023-04-03T01:33:59;3.75;;;2.03;;
41885;SDS011;27567;43.084;25.616;2023-04-03T01:36:42;3.60;;;2.05;;
41885;SDS011;27567;43.084;25.616;2023-04-03T01:39:26;3.97;;;1.90;;
41885;SDS011;27567;43.084;25.616;2023-04-03T01:42:10;3.78;;;1.83;;
41885;SDS011;27567;43.084;25.616;2023-04-03T01:44:55;4.55;;;2.15;;
41885;SDS011;27567;43.084;25.616;2023-04-03T01:47:39;3.08;;;1.85;;
41885;SDS011;27567;43.084;25.616;2023-04-03T01:50:23;5.72;;;2.70;;
41885;SDS011;27567;43.084;25.616;2023-04-03T01:53:07;6.20;;;3.55;;
41885;SDS011;27567;43.084;25.616;2023-04-03T01:55:51;4.57;;;2.55;;
41885;SDS011;27567;43.084;25.616;2023-04-03T01:58:35;3.55;;;2.28;;
41885;SDS011;27567;43.084;25.616;2023-04-03T02:01:19;4.20;;;1.88;;
41885;SDS011;27567;43.084;25.616;2023-04-03T02:04:04;3.38;;;1.80;;
41885;SDS011;27567;43.084;25.616;2023-04-03T02:06:49;5.03;;;1.70;;
41885;SDS011;27567;43.084;25.616;2023-04-03T02:09:33;3.90;;;2.42;;
41885;SDS011;27567;43.084;25.616;2023-04-03T02:12:17;7.63;;;2.13;;
41885;SDS011;27567;43.084;25.616;2023-04-03T02:15:00;3.35;;;2.10;;
41885;SDS011;27567;43.084;25.616;2023-04-03T02:17:44;5.90;;;2.25;;
41885;SDS011;27567;43.084;25.616;2023-04-03T02:20:28;3.00;;;1.50;;
41885;SDS011;27567;43.084;25.616;2023-04-03T02:23:13;4.03;;;1.75;;
41885;SDS011;27567;43.084;25.616;2023-04-03T02:26:10;3.95;;;1.90;;
41885;SDS011;27567;43.084;25.616;2023-04-03T02:28:56;5.00;;;1.90;;
41885;SDS011;27567;43.084;25.616;2023-04-03T02:31:40;2.40;;;1.30;;
41885;SDS011;27567;43.084;25.616;2023-04-03T02:34:24;12.23;;;1.88;;
41885;SDS011;27567;43.084;25.616;2023-04-03T02:37:08;3.67;;;2.47;;
41885;SDS011;27567;43.084;25.616;2023-04-03T02:39:52;4.25;;;2.22;;
41885;SDS011;27567;43.084;25.616;2023-04-03T02:42:36;9.90;;;4.45;;
41885;SDS011;27567;43.084;25.616;2023-04-03T02:45:21;14.27;;;6.45;;
41885;SDS011;27567;43.084;25.616;2023-04-03T02:48:05;10.73;;;5.47;;
41885;SDS011;27567;43.084;25.616;2023-04-03T02:50:49;5.63;;;3.25;;
41885;SDS011;27567;43.084;25.616;2023-04-03T02:53:33;3.75;;;2.33;;
41885;SDS011;27567;43.084;25.616;2023-04-03T02:56:17;2.92;;;1.95;;
41885;SDS011;27567;43.084;25.616;2023-04-03T02:59:03;6.38;;;2.70;;
41885;SDS011;27567;43.084;25.616;2023-04-03T03:01:47;6.75;;;3.33;;
41885;SDS011;27567;43.084;25.616;2023-04-03T03:04:31;5.97;;;3.55;;
41885;SDS011;27567;43.084;25.616;2023-04-03T03:07:15;5.75;;;3.40;;
41885;SDS011;27567;43.084;25.616;2023-04-03T03:09:59;9.43;;;4.07;;
41885;SDS011;27567;43.084;25.616;2023-04-03T03:12:43;4.75;;;2.97;;
41885;SDS011;27567;43.084;25.616;2023-04-03T03:15:27;9.68;;;2.97;;
41885;SDS011;27567;43.084;25.616;2023-04-03T03:18:11;5.68;;;2.42;;
41885;SDS011;27567;43.084;25.616;2023-04-03T03:20:55;3.55;;;2.08;;
41885;SDS011;27567;43.084;25.616;2023-04-03T03:23:41;3.17;;;1.77;;
41885;SDS011;27567;43.084;25.616;2023-04-03T03:26:25;4.72;;;1.90;;
41885;SDS011;27567;43.084;25.616;2023-04-03T03:29:09;12.20;;;4.68;;
41885;SDS011;27567;43.084;25.616;2023-04-03T03:31:53;4.97;;;2.20;;
41885;SDS011;27567;43.084;25.616;2023-04-03T03:34:37;5.47;;;1.80;;
41885;SDS011;27567;43.084;25.616;2023-04-03T03:37:21;5.15;;;1.77;;
41885;SDS011;27567;43.084;25.616;2023-04-03T03:40:05;4.90;;;2.42;;
41885;SDS011;27567;43.084;25.616;2023-04-03T03:42:50;7.78;;;3.42;;
41885;SDS011;27567;43.084;25.616;2023-04-03T03:45:34;16.75;;;5.47;;
41885;SDS011;27567;43.084;25.616;2023-04-03T03:48:19;8.27;;;3.72;;
41885;SDS011;27567;43.084;25.616;2023-04-03T03:51:03;7.68;;;3.90;;
41885;SDS011;27567;43.084;25.616;2023-04-03T03:53:47;4.32;;;2.55;;
41885;SDS011;27567;43.084;25.616;2023-04-03T03:56:31;5.38;;;2.40;;
41885;SDS011;27567;43.084;25.616;2023-04-03T03:59:16;3.28;;;2.20;;
41885;SDS011;27567;43.084;25.616;2023-04-03T04:02:01;7.10;;;1.90;;
41885;SDS011;27567;43.084;25.616;2023-04-03T04:04:45;5.90;;;2.78;;
41885;SDS011;27567;43.084;25.616;2023-04-03T04:07:29;4.70;;;1.90;;
41885;SDS011;27567;43.084;25.616;2023-04-03T04:10:13;5.88;;;3.00;;
41885;SDS011;27567;43.084;25.616;2023-04-03T04:12:57;6.30;;;2.10;;
41885;SDS011;27567;43.084;25.616;2023-04-03T04:15:42;2.47;;;1.80;;
41885;SDS011;27567;43.084;25.616;2023-04-03T04:18:27;4.53;;;1.67;;
41885;SDS011;27567;43.084;25.616;2023-04-03T04:21:11;6.78;;;1.92;;
41885;SDS011;27567;43.084;25.616;2023-04-03T04:23:55;4.30;;;2.05;;
41885;SDS011;27567;43.084;25.616;2023-04-03T04:26:39;7.28;;;2.53;;
41885;SDS011;27567;43.084;25.616;2023-04-03T04:29:23;6.68;;;2.95;;
41885;SDS011;27567;43.084;25.616;2023-04-03T04:32:07;4.97;;;3.25;;
41885;SDS011;27567;43.084;25.616;2023-04-03T04:34:52;4.28;;;2.60;;
41885;SDS011;27567;43.084;25.616;2023-04-03T04:37:36;5.25;;;2.90;;
41885;SDS011;27567;43.084;25.616;2023-04-03T04:40:20;3.90;;;2.40;;
41885;SDS011;27567;43.084;25.616;2023-04-03T04:43:04;4.65;;;2.55;;
41885;SDS011;27567;43.084;25.616;2023-04-03T04:45:48;6.63;;;2.20;;
41885;SDS011;27567;43.084;25.616;2023-04-03T04:48:32;5.00;;;2.17;;
41885;SDS011;27567;43.084;25.616;2023-04-03T04:51:17;2.65;;;2.08;;
41885;SDS011;27567;43.084;25.616;2023-04-03T04:54:01;4.78;;;3.00;;
41885;SDS011;27567;43.084;25.616;2023-04-03T04:56:46;7.38;;;3.78;;
41885;SDS011;27567;43.084;25.616;2023-04-03T04:59:30;8.77;;;4.05;;
41885;SDS011;27567;43.084;25.616;2023-04-03T05:02:14;9.00;;;3.20;;
41885;SDS011;27567;43.084;25.616;2023-04-03T05:04:58;7.25;;;3.80;;
41885;SDS011;27567;43.084;25.616;2023-04-03T05:07:43;10.40;;;3.75;;
41885;SDS011;27567;43.084;25.616;2023-04-03T05:10:27;12.18;;;4.60;;
41885;SDS011;27567;43.084;25.616;2023-04-03T05:13:11;8.00;;;3.78;;
41885;SDS011;27567;43.084;25.616;2023-04-03T05:15:55;8.98;;;4.15;;
41885;SDS011;27567;43.084;25.616;2023-04-03T05:18:39;12.98;;;4.10;;
41885;SDS011;27567;43.084;25.616;2023-04-03T05:21:23;7.63;;;3.58;;
41885;SDS011;27567;43.084;25.616;2023-04-03T05:24:09;8.35;;;3.33;;
41885;SDS011;27567;43.084;25.616;2023-04-03T05:26:53;6.47;;;3.20;;
41885;SDS011;27567;43.084;25.616;2023-04-03T05:29:37;9.30;;;3.40;;
41885;SDS011;27567;43.084;25.616;2023-04-03T05:32:22;9.30;;;3.95;;
41885;SDS011;27567;43.084;25.616;2023-04-03T05:35:07;5.65;;;2.83;;
41885;SDS011;27567;43.084;25.616;2023-04-03T05:37:51;8.32;;;3.38;;
41885;SDS011;27567;43.084;25.616;2023-04-03T05:40:35;9.57;;;2.95;;
41885;SDS011;27567;43.084;25.616;2023-04-03T05:43:20;8.57;;;2.92;;
41885;SDS011;27567;43.084;25.616;2023-04-03T05:46:08;10.23;;;3.10;;
41885;SDS011;27567;43.084;25.616;2023-04-03T05:48:55;7.25;;;3.20;;
41885;SDS011;27567;43.084;25.616;2023-04-03T05:51:40;12.65;;;3.90;;
41885;SDS011;27567;43.084;25.616;2023-04-03T05:54:25;8.00;;;3.25;;
41885;SDS011;27567;43.084;25.616;2023-04-03T05:57:10;6.97;;;3.17;;
41885;SDS011;27567;43.084;25.616;2023-04-03T05:59:55;9.52;;;2.38;;
41885;SDS011;27567;43.084;25.616;2023-04-03T06:02:39;15.48;;;3.80;;
41885;SDS011;27567;43.084;25.616;2023-04-03T06:05:23;13.88;;;4.18;;
41885;SDS011;27567;43.084;25.616;2023-04-03T06:08:08;7.82;;;3.20;;
41885;SDS011;27567;43.084;25.616;2023-04-03T06:10:52;10.57;;;5.05;;
41885;SDS011;27567;43.084;25.616;2023-04-03T06:13:36;9.73;;;4.88;;
41885;SDS011;27567;43.084;25.616;2023-04-03T06:16:21;14.52;;;6.50;;
41885;SDS011;27567;43.084;25.616;2023-04-03T06:19:06;11.35;;;5.60;;
41885;SDS011;27567;43.084;25.616;2023-04-03T06:21:51;10.38;;;5.68;;
41885;SDS011;27567;43.084;25.616;2023-04-03T06:24:35;14.27;;;6.45;;
41885;SDS011;27567;43.084;25.616;2023-04-03T06:27:20;12.93;;;5.82;;
41885;SDS011;27567;43.084;25.616;2023-04-03T06:30:05;9.35;;;4.60;;
41885;SDS011;27567;43.084;25.616;2023-04-03T06:32:50;8.32;;;4.47;;
41885;SDS011;27567;43.084;25.616;2023-04-03T06:35:35;11.52;;;5.97;;
41885;SDS011;27567;43.084;25.616;2023-04-03T06:38:19;14.05;;;5.30;;
41885;SDS011;27567;43.084;25.616;2023-04-03T06:41:03;16.15;;;4.55;;
41885;SDS011;27567;43.084;25.616;2023-04-03T06:43:48;9.40;;;4.60;;
41885;SDS011;27567;43.084;25.616;2023-04-03T06:46:32;18.83;;;6.53;;
41885;SDS011;27567;43.084;25.616;2023-04-03T06:49:16;21.38;;;6.53;;
41885;SDS011;27567;43.084;25.616;2023-04-03T06:51:59;12.30;;;4.88;;
41885;SDS011;27567;43.084;25.616;2023-04-03T06:54:43;10.13;;;4.30;;
41885;SDS011;27567;43.084;25.616;2023-04-03T06:57:28;11.45;;;4.72;;
41885;SDS011;27567;43.084;25.616;2023-04-03T07:00:12;15.25;;;5.25;;
41885;SDS011;27567;43.084;25.616;2023-04-03T07:02:57;14.88;;;4.80;;
41885;SDS011;27567;43.084;25.616;2023-04-03T07:05:41;11.02;;;4.05;;
41885;SDS011;27567;43.084;25.616;2023-04-03T07:08:28;10.32;;;4.95;;
41885;SDS011;27567;43.084;25.616;2023-04-03T07:11:12;11.23;;;4.32;;
41885;SDS011;27567;43.084;25.616;2023-04-03T07:13:56;12.77;;;4.57;;
41885;SDS011;27567;43.084;25.616;2023-04-03T07:16:41;9.52;;;3.60;;
41885;SDS011;27567;43.084;25.616;2023-04-03T07:19:25;6.80;;;3.25;;
41885;SDS011;27567;43.084;25.616;2023-04-03T07:22:11;6.55;;;3.58;;
41885;SDS011;27567;43.084;25.616;2023-04-03T07:24:55;3.50;;;1.98;;
41885;SDS011;27567;43.084;25.616;2023-04-03T07:27:39;8.93;;;4.28;;
41885;SDS011;27567;43.084;25.616;2023-04-03T07:30:23;226.52;;;85.38;;
41885;SDS011;27567;43.084;25.616;2023-04-03T07:33:07;11.05;;;6.65;;
41885;SDS011;27567;43.084;25.616;2023-04-03T07:35:51;10.82;;;4.45;;
41885;SDS011;27567;43.084;25.616;2023-04-03T07:38:36;11.50;;;5.57;;
41885;SDS011;27567;43.084;25.616;2023-04-03T07:41:20;11.95;;;4.60;;
41885;SDS011;27567;43.084;25.616;2023-04-03T07:44:05;10.52;;;4.38;;
41885;SDS011;27567;43.084;25.616;2023-04-03T07:46:50;9.65;;;4.20;;
41885;SDS011;27567;43.084;25.616;2023-04-03T07:49:34;8.80;;;3.97;;
41885;SDS011;27567;43.084;25.616;2023-04-03T07:52:21;8.93;;;3.00;;
41885;SDS011;27567;43.084;25.616;2023-04-03T07:55:06;10.70;;;4.30;;
41885;SDS011;27567;43.084;25.616;2023-04-03T07:57:50;3.72;;;2.55;;
41885;SDS011;27567;43.084;25.616;2023-04-03T08:00:34;6.40;;;2.50;;
41885;SDS011;27567;43.084;25.616;2023-04-03T08:03:18;15.23;;;5.43;;
41885;SDS011;27567;43.084;25.616;2023-04-03T08:06:03;223.98;;;68.22;;
41885;SDS011;27567;43.084;25.616;2023-04-03T08:08:49;105.63;;;34.10;;
41885;SDS011;27567;43.084;25.616;2023-04-03T08:11:33;49.40;;;17.00;;
41885;SDS011;27567;43.084;25.616;2023-04-03T08:14:17;8.88;;;3.53;;
41885;SDS011;27567;43.084;25.616;2023-04-03T08:17:02;15.77;;;5.63;;
41885;SDS011;27567;43.084;25.616;2023-04-03T08:19:48;1.25;;;1.02;;
41885;SDS011;27567;43.084;25.616;2023-04-03T08:22:32;4.18;;;1.40;;
41885;SDS011;27567;43.084;25.616;2023-04-03T08:25:17;4.32;;;2.55;;
41885;SDS011;27567;43.084;25.616;2023-04-03T08:28:01;4.60;;;2.00;;
41885;SDS011;27567;43.084;25.616;2023-04-03T08:30:45;20.23;;;7.72;;
41885;SDS011;27567;43.084;25.616;2023-04-03T08:33:30;13.15;;;5.05;;
41885;SDS011;27567;43.084;25.616;2023-04-03T08:36:21;2.08;;;1.10;;
41885;SDS011;27567;43.084;25.616;2023-04-03T08:39:10;3.15;;;1.95;;
41885;SDS011;27567;43.084;25.616;2023-04-03T08:41:55;11.38;;;4.95;;
41885;SDS011;27567;43.084;25.616;2023-04-03T08:47:40;3.00;;;1.30;;
41885;SDS011;27567;43.084;25.616;2023-04-03T08:50:41;3.92;;;1.42;;
41885;SDS011;27567;43.084;25.616;2023-04-03T08:53:28;5.13;;;1.67;;
41885;SDS011;27567;43.084;25.616;2023-04-03T08:56:17;5.18;;;2.50;;
41885;SDS011;27567;43.084;25.616;2023-04-03T08:59:09;3.97;;;1.05;;
41885;SDS011;27567;43.084;25.616;2023-04-03T09:01:57;3.75;;;1.55;;
41885;SDS011;27567;43.084;25.616;2023-04-03T09:04:45;2.05;;;0.90;;
41885;SDS011;27567;43.084;25.616;2023-04-03T09:07:49;1.17;;;0.90;;
41885;SDS011;27567;43.084;25.616;2023-04-03T09:10:42;0.88;;;0.70;;
41885;SDS011;27567;43.084;25.616;2023-04-03T09:13:30;2.72;;;1.00;;
41885;SDS011;27567;43.084;25.616;2023-04-03T09:16:19;1.88;;;0.95;;
41885;SDS011;27567;43.084;25.616;2023-04-03T09:19:33;1.13;;;0.90;;
41885;SDS011;27567;43.084;25.616;2023-04-03T09:22:26;1.85;;;0.80;;
41885;SDS011;27567;43.084;25.616;2023-04-03T09:25:17;2.10;;;1.38;;
41885;SDS011;27567;43.084;25.616;2023-04-03T09:28:20;1.25;;;0.77;;
41885;SDS011;27567;43.084;25.616;2023-04-03T09:31:11;3.72;;;1.45;;
41885;SDS011;27567;43.084;25.616;2023-04-03T09:34:01;3.05;;;1.77;;
41885;SDS011;27567;43.084;25.616;2023-04-03T09:36:51;2.47;;;1.90;;
41885;SDS011;27567;43.084;25.616;2023-04-03T09:39:50;3.33;;;1.80;;
41885;SDS011;27567;43.084;25.616;2023-04-03T09:42:38;6.97;;;2.28;;
41885;SDS011;27567;43.084;25.616;2023-04-03T09:45:27;3.03;;;2.13;;
41885;SDS011;27567;43.084;25.616;2023-04-03T09:48:21;2.50;;;1.77;;
41885;SDS011;27567;43.084;25.616;2023-04-03T09:51:09;3.03;;;2.20;;
41885;SDS011;27567;43.084;25.616;2023-04-03T09:53:59;13.13;;;2.30;;
41885;SDS011;27567;43.084;25.616;2023-04-03T09:56:43;4.90;;;3.47;;
41885;SDS011;27567;43.084;25.616;2023-04-03T09:59:34;4.50;;;2.40;;
41885;SDS011;27567;43.084;25.616;2023-04-03T10:13:58;3.40;;;1.63;;
41885;SDS011;27567;43.084;25.616;2023-04-03T10:41:28;3.00;;;1.55;;
41885;SDS011;27567;43.084;25.616;2023-04-03T10:56:31;5.25;;;1.40;;
41885;SDS011;27567;43.084;25.616;2023-04-03T11:05:42;2.10;;;1.27;;
41885;SDS011;27567;43.084;25.616;2023-04-03T11:11:47;3.75;;;1.48;;
41885;SDS011;27567;43.084;25.616;2023-04-03T11:14:34;4.65;;;1.40;;
41885;SDS011;27567;43.084;25.616;2023-04-03T11:20:23;2.50;;;1.15;;
41885;SDS011;27567;43.084;25.616;2023-04-03T11:23:15;4.13;;;1.20;;
41885;SDS011;27567;43.084;25.616;2023-04-03T11:26:07;7.60;;;1.70;;
41885;SDS011;27567;43.084;25.616;2023-04-03T11:28:52;5.13;;;1.65;;
41885;SDS011;27567;43.084;25.616;2023-04-03T11:35:15;3.78;;;1.13;;
41885;SDS011;27567;43.084;25.616;2023-04-03T11:38:02;1.55;;;0.82;;
41885;SDS011;27567;43.084;25.616;2023-04-03T11:40:50;1.73;;;0.77;;
41885;SDS011;27567;43.084;25.616;2023-04-03T11:43:39;3.55;;;1.85;;
41885;SDS011;27567;43.084;25.616;2023-04-03T12:01:10;4.95;;;1.70;;
41885;SDS011;27567;43.084;25.616;2023-04-03T12:04:16;1.83;;;0.70;;
41885;SDS011;27567;43.084;25.616;2023-04-03T12:07:11;3.40;;;1.27;;
41885;SDS011;27567;43.084;25.616;2023-04-03T12:09:58;2.13;;;0.73;;
41885;SDS011;27567;43.084;25.616;2023-04-03T12:12:55;3.20;;;0.70;;
41885;SDS011;27567;43.084;25.616;2023-04-03T12:22:07;0.90;;;0.60;;
41885;SDS011;27567;43.084;25.616;2023-04-03T12:24:54;3.00;;;1.10;;
41885;SDS011;27567;43.084;25.616;2023-04-03T12:27:40;2.72;;;1.25;;
41885;SDS011;27567;43.084;25.616;2023-04-03T12:30:26;4.18;;;1.77;;
41885;SDS011;27567;43.084;25.616;2023-04-03T12:33:24;4.60;;;1.50;;
41885;SDS011;27567;43.084;25.616;2023-04-03T12:36:23;3.88;;;1.13;;
41885;SDS011;27567;43.084;25.616;2023-04-03T12:42:40;9.85;;;1.70;;
41885;SDS011;27567;43.084;25.616;2023-04-03T12:48:53;4.20;;;1.38;;
41885;SDS011;27567;43.084;25.616;2023-04-03T12:51:40;8.68;;;1.85;;
41885;SDS011;27567;43.084;25.616;2023-04-03T12:54:36;8.65;;;1.52;;
41885;SDS011;27567;43.084;25.616;2023-04-03T12:57:24;2.33;;;1.30;;
41885;SDS011;27567;43.084;25.616;2023-04-03T13:00:20;1.15;;;0.70;;
41885;SDS011;27567;43.084;25.616;2023-04-03T13:03:20;1.88;;;1.17;;
41885;SDS011;27567;43.084;25.616;2023-04-03T13:06:11;2.85;;;1.33;;
41885;SDS011;27567;43.084;25.616;2023-04-03T13:09:02;1.10;;;0.73;;
41885;SDS011;27567;43.084;25.616;2023-04-03T13:11:48;4.22;;;1.13;;
41885;SDS011;27567;43.084;25.616;2023-04-03T13:14:35;4.85;;;2.13;;
41885;SDS011;27567;43.084;25.616;2023-04-03T13:17:20;9.88;;;2.10;;
41885;SDS011;27567;43.084;25.616;2023-04-03T13:20:12;5.22;;;1.80;;
41885;SDS011;27567;43.084;25.616;2023-04-03T13:23:02;5.05;;;1.52;;
41885;SDS011;27567;43.084;25.616;2023-04-03T13:25:51;3.75;;;1.67;;
41885;SDS011;27567;43.084;25.616;2023-04-03T13:28:36;4.57;;;1.70;;
41885;SDS011;27567;43.084;25.616;2023-04-03T13:31:23;3.50;;;1.98;;
41885;SDS011;27567;43.084;25.616;2023-04-03T13:34:17;3.80;;;1.58;;
41885;SDS011;27567;43.084;25.616;2023-04-03T13:37:03;4.18;;;1.60;;
41885;SDS011;27567;43.084;25.616;2023-04-03T13:43:01;3.65;;;1.67;;
41885;SDS011;27567;43.084;25.616;2023-04-03T13:48:55;2.50;;;1.67;;
41885;SDS011;27567;43.084;25.616;2023-04-03T13:51:43;2.50;;;1.20;;
41885;SDS011;27567;43.084;25.616;2023-04-03T13:57:18;3.85;;;2.00;;
41885;SDS011;27567;43.084;25.616;2023-04-03T14:03:13;2.85;;;1.90;;
41885;SDS011;27567;43.084;25.616;2023-04-03T14:06:20;5.20;;;2.00;;
41885;SDS011;27567;43.084;25.616;2023-04-03T14:09:04;3.08;;;1.88;;
41885;SDS011;27567;43.084;25.616;2023-04-03T14:11:49;3.53;;;2.25;;
41885;SDS011;27567;43.084;25.616;2023-04-03T14:14:36;3.15;;;2.03;;
41885;SDS011;27567;43.084;25.616;2023-04-03T14:17:23;2.72;;;2.00;;
41885;SDS011;27567;43.084;25.616;2023-04-03T14:20:14;7.25;;;3.65;;
41885;SDS011;27567;43.084;25.616;2023-04-03T14:22:59;4.88;;;3.08;;
41885;SDS011;27567;43.084;25.616;2023-04-03T14:25:44;20.33;;;12.88;;
41885;SDS011;27567;43.084;25.616;2023-04-03T14:28:28;232.68;;;98.57;;
41885;SDS011;27567;43.084;25.616;2023-04-03T14:31:12;595.08;;;247.85;;
41885;SDS011;27567;43.084;25.616;2023-04-03T14:33:58;516.15;;;174.98;;
41885;SDS011;27567;43.084;25.616;2023-04-03T14:36:43;1052.90;;;431.50;;
41885;SDS011;27567;43.084;25.616;2023-04-03T14:39:28;883.90;;;315.70;;
41885;SDS011;27567;43.084;25.616;2023-04-03T14:42:32;64.15;;;22.42;;
41885;SDS011;27567;43.084;25.616;2023-04-03T14:45:19;543.35;;;234.23;;
41885;SDS011;27567;43.084;25.616;2023-04-03T14:48:04;367.17;;;178.48;;
41885;SDS011;27567;43.084;25.616;2023-04-03T14:50:53;23.67;;;13.95;;
41885;SDS011;27567;43.084;25.616;2023-04-03T14:53:38;11.18;;;5.07;;
41885;SDS011;27567;43.084;25.616;2023-04-03T14:56:25;6.63;;;3.85;;
41885;SDS011;27567;43.084;25.616;2023-04-03T14:59:12;10.93;;;4.90;;
41885;SDS011;27567;43.084;25.616;2023-04-03T15:01:58;5.97;;;3.92;;
41885;SDS011;27567;43.084;25.616;2023-04-03T15:04:42;10.90;;;5.07;;
41885;SDS011;27567;43.084;25.616;2023-04-03T15:07:27;15.88;;;6.82;;
41885;SDS011;27567;43.084;25.616;2023-04-03T15:12:58;9.50;;;4.35;;
41885;SDS011;27567;43.084;25.616;2023-04-03T15:15:42;5.35;;;3.10;;
41885;SDS011;27567;43.084;25.616;2023-04-03T15:18:27;7.70;;;4.43;;
41885;SDS011;27567;43.084;25.616;2023-04-03T15:21:15;10.25;;;4.60;;
41885;SDS011;27567;43.084;25.616;2023-04-03T15:24:00;20.90;;;9.95;;
41885;SDS011;27567;43.084;25.616;2023-04-03T15:26:44;20.58;;;10.05;;
41885;SDS011;27567;43.084;25.616;2023-04-03T15:29:28;44.40;;;23.52;;
41885;SDS011;27567;43.084;25.616;2023-04-03T15:32:12;295.13;;;95.20;;
41885;SDS011;27567;43.084;25.616;2023-04-03T15:34:56;66.65;;;27.17;;
41885;SDS011;27567;43.084;25.616;2023-04-03T15:37:40;46.78;;;19.83;;
41885;SDS011;27567;43.084;25.616;2023-04-03T15:40:24;49.28;;;19.63;;
41885;SDS011;27567;43.084;25.616;2023-04-03T15:43:09;38.03;;;16.23;;
41885;SDS011;27567;43.084;25.616;2023-04-03T15:45:55;14.27;;;6.75;;
41885;SDS011;27567;43.084;25.616;2023-04-03T15:48:42;41.25;;;16.20;;
41885;SDS011;27567;43.084;25.616;2023-04-03T15:51:26;120.43;;;49.65;;
41885;SDS011;27567;43.084;25.616;2023-04-03T15:54:11;89.38;;;34.20;;
41885;SDS011;27567;43.084;25.616;2023-04-03T15:56:56;19.20;;;10.15;;
41885;SDS011;27567;43.084;25.616;2023-04-03T15:59:40;8.30;;;5.25;;
41885;SDS011;27567;43.084;25.616;2023-04-03T16:02:24;8.65;;;4.57;;
41885;SDS011;27567;43.084;25.616;2023-04-03T16:05:12;7.18;;;3.80;;
41885;SDS011;27567;43.084;25.616;2023-04-03T16:07:59;4.28;;;2.95;;
41885;SDS011;27567;43.084;25.616;2023-04-03T16:10:44;4.47;;;3.00;;
41885;SDS011;27567;43.084;25.616;2023-04-03T16:13:29;4.57;;;3.10;;
41885;SDS011;27567;43.084;25.616;2023-04-03T16:16:14;7.50;;;4.10;;
41885;SDS011;27567;43.084;25.616;2023-04-03T16:18:58;12.25;;;5.90;;
41885;SDS011;27567;43.084;25.616;2023-04-03T16:21:42;11.38;;;4.13;;
41885;SDS011;27567;43.084;25.616;2023-04-03T16:24:26;10.88;;;5.47;;
41885;SDS011;27567;43.084;25.616;2023-04-03T16:27:10;9.00;;;4.95;;
41885;SDS011;27567;43.084;25.616;2023-04-03T16:29:54;6.93;;;4.07;;
41885;SDS011;27567;43.084;25.616;2023-04-03T16:32:38;8.00;;;5.22;;
41885;SDS011;27567;43.084;25.616;2023-04-03T16:35:23;5.90;;;4.40;;
41885;SDS011;27567;43.084;25.616;2023-04-03T16:38:08;6.90;;;4.07;;
41885;SDS011;27567;43.084;25.616;2023-04-03T16:40:52;7.38;;;4.80;;
41885;SDS011;27567;43.084;25.616;2023-04-03T16:43:39;7.15;;;4.70;;
41885;SDS011;27567;43.084;25.616;2023-04-03T16:46:24;9.13;;;4.70;;
41885;SDS011;27567;43.084;25.616;2023-04-03T16:49:08;7.30;;;5.35;;
41885;SDS011;27567;43.084;25.616;2023-04-03T16:51:52;6.93;;;4.07;;
41885;SDS011;27567;43.084;25.616;2023-04-03T16:54:36;6.72;;;4.47;;
41885;SDS011;27567;43.084;25.616;2023-04-03T16:57:21;7.43;;;5.88;;
41885;SDS011;27567;43.084;25.616;2023-04-03T17:00:08;8.35;;;5.35;;
41885;SDS011;27567;43.084;25.616;2023-04-03T17:02:52;8.52;;;5.95;;
41885;SDS011;27567;43.084;25.616;2023-04-03T17:05:36;9.40;;;5.47;;
41885;SDS011;27567;43.084;25.616;2023-04-03T17:08:21;10.05;;;6.10;;
41885;SDS011;27567;43.084;25.616;2023-04-03T17:11:05;10.65;;;6.00;;
41885;SDS011;27567;43.084;25.616;2023-04-03T17:13:49;10.13;;;6.15;;
41885;SDS011;27567;43.084;25.616;2023-04-03T17:16:34;12.30;;;6.60;;
41885;SDS011;27567;43.084;25.616;2023-04-03T17:19:20;7.57;;;4.80;;
41885;SDS011;27567;43.084;25.616;2023-04-03T17:22:07;10.98;;;4.38;;
41885;SDS011;27567;43.084;25.616;2023-04-03T17:24:52;10.32;;;4.57;;
41885;SDS011;27567;43.084;25.616;2023-04-03T17:27:36;6.18;;;4.00;;
41885;SDS011;27567;43.084;25.616;2023-04-03T17:30:20;7.63;;;4.78;;
41885;SDS011;27567;43.084;25.616;2023-04-03T17:33:05;6.53;;;4.40;;
41885;SDS011;27567;43.084;25.616;2023-04-03T17:35:49;6.40;;;5.07;;
41885;SDS011;27567;43.084;25.616;2023-04-03T17:38:33;8.85;;;5.22;;
41885;SDS011;27567;43.084;25.616;2023-04-03T17:41:18;7.53;;;5.70;;
41885;SDS011;27567;43.084;25.616;2023-04-03T17:44:02;10.15;;;5.30;;
41885;SDS011;27567;43.084;25.616;2023-04-03T17:46:49;8.30;;;5.75;;
41885;SDS011;27567;43.084;25.616;2023-04-03T17:49:33;9.10;;;6.45;;
41885;SDS011;27567;43.084;25.616;2023-04-03T17:52:17;11.18;;;7.88;;
41885;SDS011;27567;43.084;25.616;2023-04-03T17:55:01;18.40;;;8.38;;
41885;SDS011;27567;43.084;25.616;2023-04-03T17:57:46;13.63;;;7.95;;
41885;SDS011;27567;43.084;25.616;2023-04-03T18:00:30;13.48;;;8.27;;
41885;SDS011;27567;43.084;25.616;2023-04-03T18:03:15;12.25;;;7.88;;
41885;SDS011;27567;43.084;25.616;2023-04-03T18:06:01;16.00;;;10.25;;
41885;SDS011;27567;43.084;25.616;2023-04-03T18:08:51;13.10;;;8.50;;
41885;SDS011;27567;43.084;25.616;2023-04-03T18:11:38;11.32;;;6.72;;